Terminal Aerodrome Forecast
Issued by NWS

Current Version | Previous Version | Text Only | Print | Product List | Glossary On
Versions: 1 2 3 4 5 6 7 8 9 10 11 12 13 14 15 16 17 18 19 20 21 22 23 24 25 26 27 28 29 30
000
FTUS42 KCAE 222050 AAB
TAFDNL
TAF AMD
KDNL 222050Z 2221/2318 15005KT P6SM BKN035
      TEMPO 2221/2223 BKN025
     FM222300 16007KT P6SM VCSH OVC025
     FM230300 19010G16KT 5SM -SHRA OVC010 WS010/19035KT
     FM231200 23012G17KT P6SM OVC015
     FM231600 28012G20KT P6SM SCT015=

USA.gov is the U.S. government's official web portal to all federal, state and local government web resources and services.